createdAt,value
2019-01-29T00:03:22.789Z,99472.09
2019-01-29T00:06:39.630Z,99476.11
2019-01-29T00:09:56.211Z,99478.55
2019-01-29T00:13:03.515Z,99490.13
2019-01-29T00:16:10.719Z,99483.11
2019-01-29T00:19:17.910Z,99484.20
2019-01-29T00:22:34.644Z,99485.23
2019-01-29T00:25:41.922Z,99489.98
2019-01-29T00:28:49.070Z,99491.13
2019-01-29T00:32:05.912Z,99495.38
2019-01-29T00:35:13.336Z,99495.91
2019-01-29T00:38:29.872Z,99497.13
2019-01-29T00:41:46.645Z,99501.73
2019-01-29T00:44:53.765Z,99505.55
2019-01-29T00:48:10.465Z,99507.61
2019-01-29T00:51:17.763Z,99507.35
2019-01-29T00:54:34.506Z,99511.83
2019-01-29T00:57:51.302Z,99507.83
2019-01-29T01:00:58.674Z,99522.10
2019-01-29T01:04:15.418Z,99515.36
2019-01-29T01:07:32.137Z,99515.09
2019-01-29T01:10:39.285Z,99527.64
2019-01-29T01:13:46.646Z,99522.05
2019-01-29T01:17:03.391Z,99522.75
2019-01-29T01:20:13.236Z,99526.05
2019-01-29T01:23:20.439Z,99532.62
2019-01-29T01:26:48.354Z,99540.12
2019-01-29T01:29:55.567Z,99540.01
2019-01-29T01:33:02.813Z,99544.78
2019-01-29T01:36:10.333Z,99555.30
2019-01-29T01:39:17.561Z,99551.52
2019-01-29T01:42:24.764Z,99551.96
2019-01-29T01:45:32.149Z,99556.41
2019-01-29T01:48:39.321Z,99556.14
2019-01-29T01:51:46.476Z,99571.11
2019-01-29T01:54:53.910Z,99561.81
2019-01-29T01:58:10.548Z,99574.37
2019-01-29T02:01:17.944Z,99565.16
2019-01-29T02:04:34.401Z,99568.34
2019-01-29T02:07:41.766Z,99574.84
2019-01-29T02:10:58.541Z,99571.66
2019-01-29T02:14:15.153Z,99572.92
2019-01-29T02:17:22.279Z,99574.37
2019-01-29T02:20:29.651Z,99570.25
2019-01-29T02:23:46.342Z,99570.08
2019-01-29T02:26:53.635Z,99573.27
2019-01-29T02:30:00.866Z,99573.66
2019-01-29T02:33:17.695Z,99578.03
2019-01-29T02:36:34.407Z,99584.95
2019-01-29T02:39:41.731Z,99594.52
2019-01-29T02:42:48.868Z,99584.75
2019-01-29T02:46:05.895Z,99583.25
2019-01-29T02:49:22.404Z,99588.69
2019-01-29T02:52:39.185Z,99585.50
2019-01-29T02:55:46.370Z,99592.52
2019-01-29T02:58:53.510Z,99587.75
2019-01-29T03:02:00.849Z,99591.22
2019-01-29T03:05:17.804Z,99593.45
2019-01-29T03:08:34.403Z,99593.70
2019-01-29T03:11:41.823Z,99599.89
2019-01-29T03:14:58.438Z,99598.63
2019-01-29T03:18:15.337Z,99604.58
2019-01-29T03:21:32.017Z,99607.10
2019-01-29T03:24:39.279Z,99602.45
2019-01-29T03:27:55.956Z,99611.45
2019-01-29T03:31:12.741Z,99621.89
2019-01-29T03:34:29.473Z,99616.25
2019-01-29T03:37:46.234Z,99623.39
2019-01-29T03:41:03.048Z,99628.39
2019-01-29T03:44:19.736Z,99631.16
2019-01-29T03:47:27.031Z,99631.03
2019-01-29T03:50:33.783Z,99636.86
2019-01-29T03:53:41.103Z,99636.75
2019-01-29T03:56:48.343Z,99634.07
2019-01-29T03:59:55.548Z,99642.83
2019-01-29T04:03:02.840Z,99648.23
2019-01-29T04:06:10.150Z,99649.45
2019-01-29T04:09:17.449Z,99653.01
2019-01-29T04:12:24.650Z,99664.16
2019-01-29T04:15:32.573Z,99668.73
2019-01-29T04:18:39.978Z,99671.27
2019-01-29T04:21:47.175Z,99662.52
2019-01-29T04:24:54.552Z,99667.88
2019-01-29T04:28:01.793Z,99666.84
2019-01-29T04:31:09.086Z,99663.77
2019-01-29T04:34:16.369Z,99668.94
2019-01-29T04:37:23.643Z,99672.56
2019-01-29T04:40:30.951Z,99669.33
2019-01-29T04:43:47.701Z,99666.20
2019-01-29T04:46:54.930Z,99670.28
2019-01-29T04:50:02.127Z,99677.53
2019-01-29T04:53:09.419Z,99669.14
2019-01-29T04:56:16.571Z,99679.23
2019-01-29T04:59:23.793Z,99681.52
2019-01-29T05:02:31.118Z,99681.96
2019-01-29T05:05:47.729Z,99685.70
2019-01-29T05:09:08.103Z,99688.41
2019-01-29T05:12:24.466Z,99690.28
2019-01-29T05:15:31.741Z,99694.46
2019-01-29T05:18:48.407Z,99685.11
2019-01-29T05:21:55.634Z,99699.12
2019-01-29T05:25:02.777Z,99704.16
2019-01-29T05:28:10.005Z,99701.29
2019-01-29T05:31:26.843Z,99698.05
2019-01-29T05:34:34.043Z,99702.35
2019-01-29T05:37:41.309Z,99700.62
2019-01-29T05:40:58.011Z,99703.93
2019-01-29T05:44:14.838Z,99708.27
2019-01-29T05:47:21.970Z,99715.84
2019-01-29T05:50:29.109Z,99713.71
2019-01-29T05:53:36.605Z,99715.69
2019-01-29T05:56:53.262Z,99711.31
2019-01-29T06:00:00.446Z,99715.38
2019-01-29T06:03:17.154Z,99713.20
2019-01-29T06:06:24.449Z,99716.48
2019-01-29T06:09:41.137Z,99718.25
2019-01-29T06:12:48.431Z,99717.03
2019-01-29T06:15:55.604Z,99720.86
2019-01-29T06:19:12.348Z,99725.88
2019-01-29T06:22:19.542Z,99725.08
2019-01-29T06:25:26.853Z,99729.89
2019-01-29T06:28:34.126Z,99727.33
2019-01-29T06:31:50.716Z,99733.05
2019-01-29T06:34:57.951Z,99740.11
2019-01-29T06:38:14.714Z,99736.36
2019-01-29T06:41:31.393Z,99740.63
2019-01-29T06:44:38.618Z,99740.59
2019-01-29T06:47:46.030Z,99746.19
2019-01-29T06:51:02.563Z,99750.77
2019-01-29T06:54:09.771Z,99754.63
2019-01-29T06:57:16.997Z,99760.38
2019-01-29T07:00:26.573Z,99765.20
2019-01-29T07:03:33.829Z,99773.69
2019-01-29T07:06:41.059Z,99773.58
2019-01-29T07:09:48.305Z,99778.91
2019-01-29T07:12:56.009Z,99773.69
2019-01-29T07:16:12.610Z,99778.66
2019-01-29T07:19:32.752Z,99781.36
2019-01-29T07:22:40.088Z,99785.11
2019-01-29T07:25:47.315Z,99787.82
2019-01-29T07:28:54.677Z,99785.54
2019-01-29T07:32:11.504Z,99784.56
2019-01-29T07:35:28.156Z,99788.98
2019-01-29T07:38:35.353Z,99788.81
2019-01-29T07:41:52.266Z,99782.19
2019-01-29T07:45:09.241Z,99793.01
2019-01-29T07:48:16.834Z,99791.90
2019-01-29T07:51:24.218Z,99804.38
2019-01-29T07:54:33.398Z,99798.49
2019-01-29T07:57:40.457Z,99796.00
2019-01-29T08:00:47.908Z,99808.56
2019-01-29T08:03:55.022Z,99804.77
2019-01-29T08:07:02.552Z,99806.15
2019-01-29T08:10:09.960Z,99812.08
2019-01-29T08:13:26.629Z,99805.52
2019-01-29T08:16:43.392Z,99817.80
2019-01-29T08:19:59.980Z,99821.08
2019-01-29T08:23:07.283Z,99821.27
2019-01-29T08:26:14.398Z,99825.77
2019-01-29T08:29:21.693Z,99830.79
2019-01-29T08:32:38.616Z,99833.55
2019-01-29T08:35:55.430Z,99841.45
2019-01-29T08:39:03.309Z,99846.94
2019-01-29T08:42:10.562Z,99849.81
2019-01-29T08:45:18.097Z,99846.50
2019-01-29T08:48:25.398Z,99846.02
2019-01-29T08:51:32.823Z,99851.83
2019-01-29T08:54:39.982Z,99853.83
2019-01-29T08:57:57.006Z,99851.97
2019-01-29T09:01:04.374Z,99854.70
2019-01-29T09:04:21.004Z,99848.61
2019-01-29T09:07:28.308Z,99856.63
2019-01-29T09:10:35.583Z,99865.80
2019-01-29T09:13:52.241Z,99855.67
2019-01-29T09:16:59.510Z,99859.99
2019-01-29T09:20:07.214Z,99863.00
2019-01-29T09:23:14.409Z,99864.10
2019-01-29T09:26:21.794Z,99866.54
2019-01-29T09:29:29.107Z,99864.52
2019-01-29T09:32:36.331Z,99874.88
2019-01-29T09:35:43.792Z,99874.34
2019-01-29T09:38:50.985Z,99876.61
2019-01-29T09:41:58.291Z,99869.30
2019-01-29T09:45:05.138Z,99874.27
2019-01-29T09:48:12.443Z,99873.66
2019-01-29T09:51:19.635Z,99867.59
2019-01-29T09:54:26.867Z,99867.86
2019-01-29T09:57:33.980Z,99869.08
2019-01-29T10:00:41.211Z,99865.94
2019-01-29T10:03:49.037Z,99863.98
2019-01-29T10:06:55.276Z,99860.36
2019-01-29T10:10:02.573Z,99863.33
2019-01-29T10:13:10.077Z,99860.22
2019-01-29T10:16:17.576Z,99858.59
2019-01-29T10:19:24.767Z,99856.08
2019-01-29T10:22:32.000Z,99863.51
2019-01-29T10:25:39.305Z,99861.52
2019-01-29T10:28:46.505Z,99862.20
2019-01-29T10:31:53.811Z,99856.27
2019-01-29T10:35:01.606Z,99847.88
2019-01-29T10:38:08.042Z,99844.43
2019-01-29T10:41:15.332Z,99835.77
2019-01-29T10:44:22.668Z,99838.16
2019-01-29T10:47:29.147Z,99832.51
2019-01-29T10:50:36.559Z,99828.27
2019-01-29T10:53:42.237Z,99834.01
2019-01-29T10:56:49.441Z,99828.16
2019-01-29T10:59:56.658Z,99822.12
2019-01-29T11:03:03.969Z,99831.47
2019-01-29T11:06:11.374Z,99837.18
2019-01-29T11:09:25.353Z,99826.93
2019-01-29T11:12:37.124Z,99822.11
2019-01-29T11:15:43.462Z,99828.62
2019-01-29T11:18:50.834Z,99819.08
2019-01-29T11:21:57.961Z,99825.77
2019-01-29T11:25:07.579Z,99820.25
2019-01-29T11:28:24.219Z,99813.76
2019-01-29T11:31:31.395Z,99820.77
2019-01-29T11:34:38.625Z,99808.04
2019-01-29T11:37:55.500Z,99806.82
2019-01-29T11:41:12.176Z,99810.50
2019-01-29T11:44:28.952Z,99811.22
2019-01-29T11:47:34.473Z,99812.28
2019-01-29T11:50:41.834Z,99807.14
2019-01-29T11:53:48.957Z,99806.48
2019-01-29T11:56:56.152Z,99811.77
2019-01-29T12:00:04.264Z,99807.91
2019-01-29T12:03:11.390Z,99810.39
2019-01-29T12:06:18.532Z,99800.93
2019-01-29T12:09:25.730Z,99806.39
2019-01-29T12:12:32.972Z,99808.77
2019-01-29T12:15:40.244Z,99808.92
2019-01-29T12:18:47.376Z,99808.52
2019-01-29T12:21:54.641Z,99801.89
2019-01-29T12:25:01.872Z,99808.83
2019-01-29T12:28:09.365Z,99796.55
2019-01-29T12:31:16.562Z,99794.69
2019-01-29T12:34:23.743Z,99799.77
2019-01-29T12:37:30.947Z,99798.49
2019-01-29T12:40:38.242Z,99795.23
2019-01-29T12:43:45.628Z,99799.71
2019-01-29T12:46:52.929Z,99797.98
2019-01-29T12:50:00.291Z,99794.46
2019-01-29T12:53:19.408Z,99791.06
2019-01-29T12:56:26.533Z,99787.41
2019-01-29T12:59:33.881Z,99792.18
2019-01-29T13:02:39.958Z,99793.87
2019-01-29T13:05:47.078Z,99796.44
2019-01-29T13:08:54.311Z,99796.30
2019-01-29T13:12:01.334Z,99794.42
2019-01-29T13:15:09.725Z,99803.36
2019-01-29T13:18:17.093Z,99782.28
2019-01-29T13:21:24.327Z,99793.09
2019-01-29T13:24:30.189Z,99791.27
2019-01-29T13:27:37.553Z,99780.33
2019-01-29T13:30:44.851Z,99775.14
2019-01-29T13:34:01.769Z,99780.97
2019-01-29T13:37:08.993Z,99780.18
2019-01-29T13:40:16.697Z,99782.61
2019-01-29T13:43:23.900Z,99783.36
2019-01-29T13:46:30.305Z,99781.89
2019-01-29T13:49:47.364Z,99774.52
2019-01-29T13:52:54.495Z,99783.66
2019-01-29T13:56:01.093Z,99780.79
2019-01-29T13:59:08.384Z,99780.05
2019-01-29T14:02:25.645Z,99777.56
2019-01-29T14:05:34.360Z,99778.75
2019-01-29T14:08:41.933Z,99777.18
2019-01-29T14:11:58.596Z,99775.27
2019-01-29T14:15:21.523Z,99774.28
2019-01-29T14:18:31.009Z,99779.27
2019-01-29T14:21:37.399Z,99783.80
2019-01-29T14:24:44.799Z,99792.23
2019-01-29T14:27:52.082Z,99795.56
2019-01-29T14:31:14.848Z,99779.62
2019-01-29T14:34:23.007Z,99785.27
2019-01-29T14:37:31.796Z,99783.70
2019-01-29T14:40:39.255Z,99779.75
2019-01-29T14:43:48.497Z,99764.51
2019-01-29T14:47:05.388Z,99766.73
2019-01-29T14:50:13.702Z,99775.22
2019-01-29T14:53:21.009Z,99774.78
2019-01-29T14:56:28.417Z,99771.29
2019-01-29T14:59:36.650Z,99771.58
2019-01-29T15:02:43.996Z,99773.80
2019-01-29T15:05:51.715Z,99771.70
2019-01-29T15:08:59.140Z,99765.23
2019-01-29T15:12:15.687Z,99766.02
2019-01-29T15:15:24.185Z,99771.70
2019-01-29T15:18:34.515Z,99770.34
2019-01-29T15:21:41.921Z,99764.93
2019-01-29T15:24:49.158Z,99774.12
2019-01-29T15:27:56.351Z,99781.85
2019-01-29T15:31:03.628Z,99776.60
2019-01-29T15:34:20.492Z,99770.20
2019-01-29T15:37:37.335Z,99770.27
2019-01-29T15:40:54.123Z,99772.59
2019-01-29T15:44:10.824Z,99771.38
2019-01-29T15:47:27.605Z,99767.41
2019-01-29T15:50:35.270Z,99776.78
2019-01-29T15:53:42.660Z,99775.28
2019-01-29T15:56:49.869Z,99773.41
2019-01-29T15:59:57.216Z,99769.39
2019-01-29T16:03:04.505Z,99767.33
2019-01-29T16:06:11.708Z,99768.16
2019-01-29T16:09:18.836Z,99766.30
2019-01-29T16:12:25.538Z,99767.67
2019-01-29T16:15:42.268Z,99763.65
2019-01-29T16:19:05.058Z,99761.92
2019-01-29T16:22:21.468Z,99760.89
2019-01-29T16:25:28.821Z,99763.05
2019-01-29T16:28:45.540Z,99762.44
2019-01-29T16:31:52.738Z,99757.13
2019-01-29T16:35:10.960Z,99753.30
2019-01-29T16:38:18.346Z,99753.73
2019-01-29T16:41:35.076Z,99750.03
2019-01-29T16:44:42.380Z,99756.48
2019-01-29T16:47:49.795Z,99758.39
2019-01-29T16:51:06.676Z,99756.40
2019-01-29T16:54:23.264Z,99744.41
2019-01-29T16:57:31.705Z,99755.76
2019-01-29T17:00:48.945Z,99740.45
2019-01-29T17:03:56.067Z,99745.97
2019-01-29T17:07:03.552Z,99746.53
2019-01-29T17:10:12.127Z,99741.52
2019-01-29T17:13:28.896Z,99747.20
2019-01-29T17:16:36.230Z,99750.57
2019-01-29T17:19:58.876Z,99744.39
2019-01-29T17:23:15.999Z,99732.50
2019-01-29T17:26:32.330Z,99734.55
2019-01-29T17:29:39.514Z,99738.92
2019-01-29T17:32:46.939Z,99745.62
2019-01-29T17:36:03.603Z,99742.33
2019-01-29T17:39:20.339Z,99738.58
2019-01-29T17:42:37.312Z,99738.44
2019-01-29T17:45:46.910Z,99742.13
2019-01-29T17:48:54.104Z,99732.89
2019-01-29T17:52:01.554Z,99734.05
2019-01-29T17:55:10.343Z,99733.13
2019-01-29T17:58:17.815Z,99728.23
2019-01-29T18:01:25.015Z,99722.09
2019-01-29T18:04:33.250Z,99723.85
2019-01-29T18:07:40.631Z,99725.49
2019-01-29T18:10:47.915Z,99724.91
2019-01-29T18:13:55.179Z,99727.69
2019-01-29T18:17:02.578Z,99731.78
2019-01-29T18:20:09.990Z,99728.03
2019-01-29T18:23:17.219Z,99731.19
2019-01-29T18:26:24.306Z,99733.47
2019-01-29T18:29:32.611Z,99735.91
2019-01-29T18:32:40.098Z,99735.86
2019-01-29T18:35:47.323Z,99738.88
2019-01-29T18:38:54.471Z,99738.29
2019-01-29T18:42:01.663Z,99746.27
2019-01-29T18:45:11.354Z,99737.75
2019-01-29T18:48:18.479Z,99736.92
2019-01-29T18:51:25.605Z,99737.36
2019-01-29T18:54:41.836Z,99733.95
2019-01-29T18:57:49.042Z,99731.95
2019-01-29T19:00:56.234Z,99729.77
2019-01-29T19:04:03.351Z,99722.51
2019-01-29T19:07:20.352Z,99727.08
2019-01-29T19:10:27.555Z,99731.45
2019-01-29T19:13:44.240Z,99725.77
2019-01-29T19:16:51.463Z,99727.52
2019-01-29T19:19:58.740Z,99727.95
2019-01-29T19:23:15.449Z,99727.95
2019-01-29T19:26:22.730Z,99725.87
2019-01-29T19:29:30.294Z,99728.79
2019-01-29T19:32:46.696Z,99718.61
2019-01-29T19:36:03.516Z,99720.62
2019-01-29T19:39:20.177Z,99716.42
2019-01-29T19:42:27.922Z,99720.13
2019-01-29T19:45:45.283Z,99719.28
2019-01-29T19:48:52.448Z,99720.64
2019-01-29T19:51:59.845Z,99721.65
2019-01-29T19:55:07.417Z,99720.63
2019-01-29T19:58:31.997Z,99722.78
2019-01-29T20:01:42.810Z,99721.77
2019-01-29T20:04:59.380Z,99720.69
2019-01-29T20:08:16.169Z,99725.23
2019-01-29T20:11:23.519Z,99731.77
2019-01-29T20:14:29.343Z,99729.11
2019-01-29T20:17:46.673Z,99726.95
2019-01-29T20:20:53.902Z,99722.22
2019-01-29T20:24:01.233Z,99718.13
2019-01-29T20:27:08.422Z,99724.70
2019-01-29T20:30:18.444Z,99721.22
2019-01-29T20:33:25.643Z,99716.50
2019-01-29T20:36:32.769Z,99716.42
2019-01-29T20:39:49.239Z,99709.09
2019-01-29T20:43:06.200Z,99716.02
2019-01-29T20:46:23.054Z,99711.28
2019-01-29T20:49:39.633Z,99713.06
2019-01-29T20:52:56.580Z,99710.84
2019-01-29T20:56:13.256Z,99719.61
2019-01-29T20:59:29.956Z,99711.53
2019-01-29T21:02:36.134Z,99711.23
2019-01-29T21:05:43.478Z,99707.45
2019-01-29T21:08:50.687Z,99711.98
2019-01-29T21:11:57.894Z,99716.34
2019-01-29T21:15:06.895Z,99703.48
2019-01-29T21:18:14.222Z,99711.63
2019-01-29T21:21:21.535Z,99706.80
2019-01-29T21:24:29.026Z,99707.19
2019-01-29T21:27:36.326Z,99708.06
2019-01-29T21:30:53.916Z,99708.06
2019-01-29T21:34:01.307Z,99710.77
2019-01-29T21:37:08.622Z,99708.58
2019-01-29T21:40:16.181Z,99707.58
2019-01-29T21:43:23.385Z,99709.97
2019-01-29T21:46:30.508Z,99707.36
2019-01-29T21:49:37.815Z,99704.26
2019-01-29T21:52:43.492Z,99701.48
2019-01-29T21:55:50.606Z,99697.08
2019-01-29T21:58:57.731Z,99695.51
2019-01-29T22:02:04.937Z,99690.55
2019-01-29T22:05:12.345Z,99690.67
2019-01-29T22:08:19.543Z,99690.38
2019-01-29T22:11:26.892Z,99680.16
2019-01-29T22:14:43.507Z,99677.81
2019-01-29T22:17:50.900Z,99682.27
2019-01-29T22:21:07.551Z,99672.94
2019-01-29T22:24:24.261Z,99669.45
2019-01-29T22:27:31.464Z,99673.47
2019-01-29T22:30:40.077Z,99667.31
2019-01-29T22:33:47.202Z,99669.16
2019-01-29T22:36:54.325Z,99668.97
2019-01-29T22:40:00.409Z,99665.02
2019-01-29T22:43:17.004Z,99658.95
2019-01-29T22:46:24.327Z,99659.74
2019-01-29T22:49:40.996Z,99661.78
2019-01-29T22:52:48.294Z,99662.13
2019-01-29T22:55:55.583Z,99658.52
2019-01-29T22:59:12.163Z,99658.13
2019-01-29T23:02:19.506Z,99651.20
2019-01-29T23:05:26.037Z,99656.30
2019-01-29T23:08:33.314Z,99643.10
2019-01-29T23:11:40.594Z,99638.05
2019-01-29T23:14:47.798Z,99640.09
2019-01-29T23:17:55.214Z,99641.48
2019-01-29T23:21:02.521Z,99631.20
2019-01-29T23:24:08.742Z,99626.12
2019-01-29T23:27:16.115Z,99619.53
2019-01-29T23:30:23.702Z,99622.63
2019-01-29T23:33:30.834Z,99613.48
2019-01-29T23:36:38.129Z,99618.27
2019-01-29T23:39:45.430Z,99610.52
2019-01-29T23:42:52.613Z,99612.22
2019-01-29T23:45:59.873Z,99603.38
2019-01-29T23:49:07.091Z,99600.64
2019-01-29T23:52:14.222Z,99599.90
2019-01-29T23:55:21.473Z,99598.77
2019-01-29T23:58:28.804Z,99600.86
